• Join FlightAware (Why Join?)
  • Login
  • US Flag 
12:04AM EDT


 

Airport Tracker/Info


-or-


 

Live Flight TrackerFlight Track Log ✈ GJS3707 ✈ 13-Jun-2013 ✈ KORD - KBOI

Flight Track Log - Related Links

Times and Time Zones

All times are in EDT time to prevent confusion due to time zone crossing. See the GJS3707 flight status page for this flight to view local times or setup timezone preferences in your user account.

Time Position Orientation Groundspeed Altitude Reporting Facility
EDT Latitude Longitude Course Direction KTS MPH feet Rate Location/Type
11:14AM 42.0167 -87.9500 261° West 173 199 2,100  Level Chicago TRACON
11:15AM 42.0667 -87.9833 334° Northwest 216 249 4,300 2,160 Climbing Chicago TRACON
11:16AM 41.9333 -88.3189 270° West  Level FlightAware Approximate
11:16AM 42.1333 -88.0369 329° Northwest 222 255 7,100  Level Chicago Center
11:17AM 41.9167 -88.4586 270° West  Level FlightAware Approximate
11:18AM 41.9011 -88.5997 261° West  Level FlightAware Approximate
11:18AM 42.1192 -88.1394 259° West 278 320 9,100  Level Chicago Center
11:19AM 41.8845 -88.7405 261° West  Level FlightAware Approximate
11:19AM 42.0858 -88.2383 246° West 292 336 11,300  Level Chicago Center
11:20AM 42.0353 -88.3389 236° Southwest 318 366 12,500 1,560 Climbing Chicago Center
11:21AM 41.9672 -88.4692 235° Southwest 348 400 14,600 1,860 Climbing Chicago Center
11:22AM 41.9497 -88.5964 260° West 351 404 16,400 1,500 Climbing Chicago Center
11:23AM 41.9272 -88.7258 257° West 356 410 17,700 1,440 Climbing Chicago Center
11:24AM 41.8975 -88.8581 253° West 371 427 19,400 1,680 Climbing Chicago Center
11:25AM 41.8675 -89.0153 256° West 369 425 21,200 1,440 Climbing Chicago Center
11:26AM 41.8461 -89.1503 258° West 371 427 22,400 1,140 Climbing Chicago Center
11:27AM 41.8258 -89.2906 259° West 383 441 23,600 1,080 Climbing Chicago Center
11:28AM 41.8214 -89.4325 268° West 386 444 24,700 1,020 Climbing Chicago Center
11:29AM 41.8186 -89.5750 269° West 387 445 25,800 1,140 Climbing Chicago Center
11:30AM 41.8158 -89.7492 269° West 392 451 27,100 1,080 Climbing Chicago Center
11:31AM 41.8133 -89.8964 269° West 397 457 28,100 900 Climbing Chicago Center
11:32AM 41.8089 -90.0328 268° West 399 459 29,000 840 Climbing Chicago Center
11:33AM 41.8072 -90.1792 269° West 397 457 29,900 960 Climbing Chicago Center
11:34AM 41.8031 -90.3539 268° West 396 456 31,000 960 Climbing Chicago Center
11:35AM 41.7972 -90.5011 267° West 398 458 31,900 840 Climbing Chicago Center
11:36AM 41.7928 -90.6458 268° West 393 452 32,800 840 Climbing Chicago Center
11:37AM 41.7886 -90.7883 268° West 386 444 33,700 720 Climbing Chicago Center
11:38AM 41.7847 -90.9275 268° West 378 435 34,400 660 Climbing Chicago Center
11:39AM 41.7783 -91.0986 267° West 384 442 35,100 540 Climbing Chicago Center
11:40AM 41.7739 -91.2414 268° West 386 444 35,600 420 Climbing Chicago Center
11:41AM 41.7694 -91.3839 268° West 387 445 36,000 180 Climbing Chicago Center
11:42AM 41.7636 -91.5308 267° West 394 453 36,000  Level Chicago Center
11:43AM 41.7575 -91.6800 267° West 402 463 36,000  Level Chicago Center
11:44AM 41.7506 -91.8622 267° West 409 471 36,000  Level Chicago Center
11:45AM 41.7447 -92.0103 267° West 404 465 36,000  Level Chicago Center
11:46AM 41.7383 -92.1569 267° West 399 459 36,000  Level Chicago Center
11:48AM 41.7319 -92.2981 267° West 389 448 36,000  Level Chicago Center
11:49AM 41.7253 -92.4411 266° West 387 445 36,000  Level Chicago Center
11:50AM 41.7189 -92.5856 267° West 389 448 36,000  Level Chicago Center
11:50AM 41.7144 -92.7019 267° West 386 444 36,000  Level Minneapolis Center
11:51AM 41.7072 -92.8500 266° West 384 442 36,000  Level Minneapolis Center
11:52AM 41.7011 -92.9917 267° West 385 443 36,000  Level Minneapolis Center
11:53AM 41.6928 -93.1339 266° West 387 445 36,000  Level Minneapolis Center
11:54AM 41.6836 -93.3128 266° West 399 459 36,000  Level Minneapolis Center
11:55AM 41.6753 -93.4622 266° West 406 467 36,000  Level Minneapolis Center
11:57AM 41.6683 -93.6142 267° West 410 472 36,000  Level Minneapolis Center
11:58AM 41.6597 -93.7642 266° West 410 472 36,000  Level Minneapolis Center
11:59AM 41.6508 -93.9419 266° West 408 470 36,000  Level Minneapolis Center
12:00PM 41.6425 -94.0917 266° West 408 470 36,000  Level Minneapolis Center
12:01PM 41.6317 -94.2511 265° West 416 479 36,000  Level Minneapolis Center
12:02PM 41.6219 -94.4050 265° West 417 480 36,000  Level Minneapolis Center
12:03PM 41.6122 -94.5558 265° West 411 473 36,000  Level Minneapolis Center
12:04PM 41.6028 -94.7086 265° West 414 476 36,000  Level Minneapolis Center
12:05PM 41.5928 -94.8597 265° West 410 472 36,000  Level Minneapolis Center
12:06PM 41.5814 -95.0394 265° West 405 466 36,000  Level Minneapolis Center
12:07PM 41.5703 -95.1908 264° West 408 470 36,000  Level Minneapolis Center
12:08PM 41.5600 -95.3425 265° West 412 474 36,000  Level Minneapolis Center
12:09PM 41.5486 -95.4914 264° West 406 467 36,000  Level Minneapolis Center
12:10PM 41.5369 -95.6558 265° West 406 467 36,000  Level Minneapolis Center
12:11PM 41.5247 -95.8061 264° West 408 470 36,000  Level Minneapolis Center
12:12PM 41.5147 -95.9575 265° West 409 471 36,000  Level Minneapolis Center
12:13PM 41.5050 -96.1067 265° West 406 467 36,000  Level Minneapolis Center
12:14PM 41.4914 -96.2864 264° West 407 468 36,000  Level Minneapolis Center
12:15PM 41.4800 -96.4408 264° West 407 468 36,000  Level Minneapolis Center
12:16PM 41.4839 -96.5903 272° West 406 467 36,000  Level Minneapolis Center
12:17PM 41.4872 -96.7400 272° West 405 466 36,000  Level Minneapolis Center
12:18PM 41.4908 -96.8903 272° West 406 467 36,000  Level Minneapolis Center
12:19PM 41.4931 -97.0414 271° West 407 468 36,000  Level Minneapolis Center
12:20PM 41.4958 -97.1914 271° West 406 467 36,100 480 Climbing Minneapolis Center
12:21PM 41.4994 -97.3681 272° West 399 459 37,100 720 Climbing Minneapolis Center
12:22PM 41.5017 -97.5125 271° West 392 451 37,600 420 Climbing Minneapolis Center
12:23PM 41.5036 -97.6567 271° West 389 448 38,000 120 Climbing Minneapolis Center
12:25PM 41.5081 -97.9478 271° West 395 455 38,000  Level Minneapolis Center
12:27PM 41.5100 -98.1250 271° West 404 465 38,000  Level Minneapolis Center
12:28PM 41.5114 -98.2778 271° West 410 472 38,000  Level Minneapolis Center
12:29PM 41.5131 -98.4303 271° West 412 474 38,000  Level Minneapolis Center
12:30PM 41.5128 -98.5869 270° West 411 473 38,000  Level Minneapolis Center
12:31PM 41.5131 -98.7400 270° West 412 474 38,000  Level Minneapolis Center
12:32PM 41.5144 -98.8931 271° West 413 475 38,000  Level Minneapolis Center
12:33PM 41.5144 -99.0456 270° West 413 475 38,000  Level Minneapolis Center
12:34PM 41.5217 -99.2267 273° West 410 472 38,100  Climbing Minneapolis Center
12:35PM 41.5356 -99.3772 277° West 408 470 38,000 -60 Descending Minneapolis Center
12:36PM 41.5444 -99.5297 275° West 410 472 38,000  Level Minneapolis Center
12:37PM 41.5547 -99.6831 275° West 412 474 38,000  Level Minneapolis Center
12:38PM 41.5608 -99.8350 273° West 413 475 38,000  Level Minneapolis Center
12:39PM 41.5664 -99.9867 273° West 411 473 38,000  Level Minneapolis Center
12:40PM 41.5742 -100.1694 273° West 411 473 38,000  Level Minneapolis Center
12:41PM 41.5811 -100.3422 273° West 409 471 38,000  Level Denver Center
12:42PM 41.5858 -100.4844 273° West 406 467 38,000  Level Denver Center
12:43PM 41.5936 -100.6531 274° West 407 468 38,000  Level Denver Center
12:44PM 41.5981 -100.7981 272° West 410 472 38,000  Level Denver Center
12:45PM 41.6042 -100.9669 273° West 410 472 38,000  Level Denver Center
12:46PM 41.6086 -101.1117 272° West 410 472 38,000  Level Denver Center
12:47PM 41.6142 -101.2831 273° West 413 475 38,000  Level Denver Center
12:48PM 41.6172 -101.4297 272° West 413 475 38,000  Level Denver Center
12:49PM 41.6228 -101.6011 273° West 415 478 38,000  Level Denver Center
12:50PM 41.6272 -101.7472 272° West 413 475 38,000  Level Denver Center
12:52PM 41.6311 -101.9181 272° West 413 475 38,000  Level Denver Center
12:53PM 41.6333 -102.0406 271° West 414 476 38,000  Level Denver Center
12:55PM 41.6408 -102.3869 272° West 420 483 38,000  Level Denver Center
12:56PM 41.6439 -102.5589 271° West 417 480 38,000  Level Denver Center
12:57PM 41.6469 -102.7200 272° West 418 481 38,000  Level Denver Center
12:58PM 41.6500 -102.8683 272° West 418 481 38,000  Level Denver Center
12:59PM 41.6528 -103.0408 271° West 417 480 38,000  Level Denver Center
01:00PM 41.6553 -103.1897 271° West 418 481 38,000  Level Denver Center
01:01PM 41.6567 -103.3375 271° West 417 480 38,000  Level Denver Center
01:02PM 41.6589 -103.5100 271° West 415 478 38,000  Level Denver Center
01:03PM 41.6611 -103.6583 271° West 415 478 38,000  Level Denver Center
01:04PM 41.6622 -103.8314 271° West 417 480 38,000  Level Denver Center
01:05PM 41.6636 -103.9792 271° West 416 479 38,000  Level Denver Center
01:06PM 41.6644 -104.1553 270° West 422 486 38,000  Level Denver Center
01:07PM 41.6647 -104.3047 270° West 421 484 38,000  Level Denver Center
01:08PM 41.6739 -104.4803 274° West 425 489 38,000  Level Denver Center
01:09PM 41.7022 -104.6289 284° West 428 493 38,000  Level Denver Center
01:10PM 41.7289 -104.7767 284° West 427 491 38,000  Level Denver Center
01:11PM 41.7606 -104.9492 284° West 426 490 38,000  Level Denver Center
01:12PM 41.7875 -105.0994 284° West 430 495 38,000  Level Denver Center
01:13PM 41.8189 -105.2747 284° West 432 497 38,000  Level Denver Center
01:14PM 41.8458 -105.4269 283° West 436 502 38,000  Level Denver Center
01:15PM 41.8764 -105.6022 283° West 433 498 38,000  Level Denver Center
01:16PM 41.9025 -105.7553 283° West 438 504 38,000  Level Denver Center
01:17PM 41.9333 -105.9322 283° West 434 499 38,000  Level Denver Center
01:18PM 41.9558 -106.0592 283° West 436 502 38,000  Level Denver Center
01:19PM 41.9886 -106.2617 282° West 435 501 38,000  Level Denver Center
01:20PM 42.0156 -106.4150 283° West 437 503 38,000  Level Denver Center
01:22PM 42.0433 -106.5789 283° West 429 494 38,000  Level Denver Center
01:23PM 42.0681 -106.7278 283° West 427 491 38,000  Level Denver Center
01:24PM 42.0953 -106.9000 282° West 424 488 38,000  Level Denver Center
01:25PM 42.1206 -107.0497 283° West 427 491 38,000  Level Denver Center
01:26PM 42.1478 -107.2244 282° West 430 495 38,000  Level Denver Center
01:27PM 42.1711 -107.3725 282° West 425 489 38,000  Level Denver Center
01:28PM 42.1983 -107.5464 282° West 425 489 38,000  Level Denver Center
01:29PM 42.2311 -107.7467 283° West 425 489 38,000  Level Salt Lake Center
01:30PM 42.2531 -107.8947 281° West 423 487 38,000  Level Salt Lake Center
01:31PM 42.2783 -108.0667 281° West 421 484 38,000  Level Salt Lake Center
01:32PM 42.3006 -108.2144 282° West 421 484 38,000  Level Salt Lake Center
01:33PM 42.3225 -108.3625 281° West 422 486 38,000  Level Salt Lake Center
01:34PM 42.3475 -108.5364 281° West 423 487 38,000  Level Salt Lake Center
01:35PM 42.3689 -108.6861 281° West 425 489 38,000  Level Salt Lake Center
01:36PM 42.3936 -108.8625 281° West 428 493 38,000  Level Salt Lake Center
01:37PM 42.4153 -109.0142 281° West 430 495 38,000  Level Salt Lake Center
01:38PM 42.4400 -109.1906 281° West 430 495 38,000  Level Salt Lake Center
01:39PM 42.4608 -109.3447 280° West 433 498 38,000  Level Salt Lake Center
01:40PM 42.4861 -109.5228 281° West 433 498 38,100  Climbing Salt Lake Center
01:41PM 42.5069 -109.6753 281° West 432 497 38,000 -60 Descending Salt Lake Center
01:42PM 42.5303 -109.8506 280° West 427 491 38,000  Level Salt Lake Center
01:43PM 42.5489 -109.9956 280° West 413 475 38,000  Level Salt Lake Center
01:44PM 42.5703 -110.1600 280° West 402 463 38,000  Level Salt Lake Center
01:45PM 42.5886 -110.2983 280° West 393 452 38,000  Level Salt Lake Center
01:47PM 42.6103 -110.4608 280° West 391 450 38,000  Level Salt Lake Center
01:48PM 42.6283 -110.6025 280° West 398 458 38,000  Level Salt Lake Center
01:49PM 42.6497 -110.7708 280° West 405 466 38,000  Level Salt Lake Center
01:50PM 42.6678 -110.9167 280° West 409 471 38,000  Level Salt Lake Center
01:51PM 42.6878 -111.0864 279° West 413 475 38,000  Level Salt Lake Center
01:52PM 42.7069 -111.2383 280° West 412 474 38,000  Level Salt Lake Center
01:53PM 42.7281 -111.4047 280° West 414 476 38,000  Level Salt Lake Center
01:54PM 42.7458 -111.5503 279° West 410 472 38,000 -300 Level Salt Lake Center
01:55PM 42.7656 -111.7186 279° West 405 466 37,400 -780 Descending Salt Lake Center
01:56PM 42.7822 -111.8617 279° West 401 461 36,400 -720 Descending Salt Lake Center
01:57PM 42.8000 -112.0258 278° West 394 453 36,000 -240 Descending Salt Lake Center
01:58PM 42.8156 -112.1622 279° West 387 445 36,000  Level Salt Lake Center
01:59PM 42.8319 -112.3089 279° West 396 456 36,000  Level Salt Lake Center
02:00PM 42.8511 -112.4814 279° West 407 468 36,000  Level Salt Lake Center
02:01PM 42.8672 -112.6281 279° West 410 472 36,000  Level Salt Lake Center
02:02PM 42.9003 -112.7942 285° West 408 470 36,000  Level Salt Lake Center
02:03PM 42.9314 -112.9389 286° West 412 474 36,000  Level Salt Lake Center
02:04PM 42.9661 -113.1067 286° West 410 472 36,000  Level Salt Lake Center
02:05PM 42.9942 -113.2481 285° West 404 465 36,000  Level Salt Lake Center
02:06PM 43.0283 -113.4144 286° West 406 467 36,000  Level Salt Lake Center
02:07PM 43.0575 -113.5597 285° West 413 475 36,000  Level Salt Lake Center
02:08PM 43.0911 -113.7297 285° West 414 476 36,000 -300 Level Salt Lake Center
02:09PM 43.1192 -113.8803 284° West 421 484 35,400 -1,080 Descending Salt Lake Center
02:10PM 43.1489 -114.0292 285° West 403 464 33,800 -1,500 Descending Salt Lake Center
02:11PM 43.1781 -114.1797 285° West 415 478 32,300 -2,040 Descending Salt Lake Center
02:12PM 43.2122 -114.3414 286° West 407 468 29,700 -2,460 Descending Salt Lake Center
02:13PM 43.2417 -114.4989 284° West 385 443 27,300 -2,220 Descending Salt Lake Center
02:14PM 43.2678 -114.6322 285° West 379 436 25,200 -2,100 Descending Salt Lake Center
02:15PM 43.2925 -114.7633 285° West 373 429 23,000 -2,280 Descending Salt Lake Center
02:17PM 43.3208 -114.9139 285° West 365 420 20,600 -2,340 Descending Salt Lake Center
02:18PM 43.3467 -115.0522 284° West 358 412 18,200 -2,280 Descending Salt Lake Center
02:19PM 43.3706 -115.1850 284° West 344 396 16,000 -1,980 Descending Salt Lake Center
02:20PM 43.3933 -115.3117 284° West 328 377 14,200 -1,380 Descending Salt Lake Center
02:21PM 43.4147 -115.4286 284° West 301 346 13,200 -960 Descending Salt Lake Center
02:22PM 43.4314 -115.5206 284° West 262 302 12,300 -1,200 Descending Salt Lake Center
02:23PM 43.4475 -115.6108 284° West 234 269 10,800 -1,140 Descending Salt Lake Center
02:24PM 43.4644 -115.7025 284° West 237 273 10,000 -480 Descending Salt Lake Center
02:25PM 43.4736 -115.7967 278° West 239 275 9,900 -540 Descending Salt Lake Center
02:26PM 43.4847 -115.8897 279° West 236 272 8,900 -1,500 Descending Salt Lake Center
02:27PM 43.4922 -115.9722 277° West 210 242 6,900 -1,620 Descending Salt Lake Center
02:28PM 43.5028 -116.0394 282° West 175 201 5,600 -1,260 Descending Salt Lake Center